createdAt,value
2023-09-02T00:01:16.484Z,100.00
2023-09-02T00:03:43.629Z,100.00
2023-09-02T00:06:10.889Z,100.00
2023-09-02T00:08:37.887Z,100.00
2023-09-02T00:11:04.943Z,100.00
2023-09-02T00:13:31.928Z,100.00
2023-09-02T00:15:58.894Z,100.00
2023-09-02T00:18:25.917Z,100.00
2023-09-02T00:20:53.309Z,100.00
2023-09-02T00:23:20.421Z,100.00
2023-09-02T00:25:47.419Z,100.00
2023-09-02T00:28:14.450Z,100.00
2023-09-02T00:30:41.442Z,100.00
2023-09-02T00:33:08.590Z,100.00
2023-09-02T00:35:35.606Z,100.00
2023-09-02T00:38:02.912Z,100.00
2023-09-02T00:40:30.714Z,100.00
2023-09-02T00:42:59.747Z,100.00
2023-09-02T00:45:26.843Z,100.00
2023-09-02T00:47:54.743Z,100.00
2023-09-02T00:50:22.097Z,100.00
2023-09-02T00:52:49.142Z,100.00
2023-09-02T00:55:16.266Z,100.00
2023-09-02T00:57:45.448Z,100.00
2023-09-02T01:00:14.159Z,100.00
2023-09-02T01:02:41.483Z,100.00
2023-09-02T01:05:09.954Z,100.00
2023-09-02T01:07:37.531Z,100.00
2023-09-02T01:10:06.271Z,100.00
2023-09-02T01:12:33.414Z,100.00
2023-09-02T01:15:00.474Z,100.00
2023-09-02T01:17:28.264Z,100.00
2023-09-02T01:19:57.623Z,100.00
2023-09-02T01:22:55.188Z,100.00
2023-09-02T01:26:15.684Z,100.00
2023-09-02T01:28:46.123Z,100.00
2023-09-02T01:31:17.447Z,100.00
2023-09-02T01:33:47.821Z,100.00
2023-09-02T01:36:17.908Z,100.00
2023-09-02T01:38:45.934Z,100.00
2023-09-02T01:41:14.977Z,100.00
2023-09-02T01:43:44.868Z,100.00
2023-09-02T01:46:12.562Z,100.00
2023-09-02T01:48:40.060Z,100.00
2023-09-02T01:51:08.709Z,100.00
2023-09-02T01:53:36.297Z,100.00
2023-09-02T01:56:03.833Z,100.00
2023-09-02T01:58:31.262Z,100.00
2023-09-02T02:00:59.302Z,100.00
2023-09-02T02:03:31.542Z,100.00
2023-09-02T02:06:01.171Z,100.00
2023-09-02T02:08:39.340Z,100.00
2023-09-02T02:11:07.367Z,100.00
2023-09-02T02:13:34.396Z,100.00
2023-09-02T02:16:01.528Z,100.00
2023-09-02T02:27:19.807Z,100.00
2023-09-02T02:29:48.317Z,100.00
2023-09-02T02:32:16.743Z,100.00
2023-09-02T02:34:45.748Z,100.00
2023-09-02T02:37:14.397Z,100.00
2023-09-02T02:39:43.287Z,100.00
2023-09-02T02:42:11.643Z,100.00
2023-09-02T02:44:40.053Z,100.00
2023-09-02T02:47:08.475Z,100.00
2023-09-02T02:49:36.988Z,100.00
2023-09-02T02:52:05.665Z,100.00
2023-09-02T02:54:38.097Z,100.00
2023-09-02T02:57:06.664Z,100.00
2023-09-02T02:59:35.125Z,100.00
2023-09-02T03:02:04.033Z,100.00
2023-09-02T03:04:33.553Z,100.00
2023-09-02T03:07:02.154Z,100.00
2023-09-02T03:09:30.535Z,100.00
2023-09-02T03:11:59.152Z,100.00
2023-09-02T03:14:28.452Z,100.00
2023-09-02T03:16:56.942Z,100.00
2023-09-02T03:19:25.374Z,100.00
2023-09-02T03:21:53.848Z,100.00
2023-09-02T03:24:22.590Z,100.00
2023-09-02T03:26:51.284Z,100.00
2023-09-02T03:29:19.645Z,100.00
2023-09-02T03:31:48.515Z,100.00
2023-09-02T03:34:16.974Z,100.00
2023-09-02T03:36:45.357Z,100.00
2023-09-02T03:39:13.755Z,100.00
2023-09-02T03:41:42.197Z,100.00
2023-09-02T03:44:10.618Z,100.00
2023-09-02T03:46:39.067Z,100.00
2023-09-02T03:49:07.507Z,100.00
2023-09-02T03:51:35.915Z,100.00
2023-09-02T03:54:05.542Z,100.00
2023-09-02T03:56:37.999Z,100.00
2023-09-02T03:59:07.959Z,100.00
2023-09-02T04:01:36.824Z,100.00
2023-09-02T04:04:05.500Z,100.00
2023-09-02T04:06:34.823Z,100.00
2023-09-02T04:09:03.236Z,100.00
2023-09-02T04:11:31.716Z,100.00
2023-09-02T04:24:58.311Z,100.00
2023-09-02T04:27:27.517Z,100.00
2023-09-02T04:29:56.236Z,100.00
2023-09-02T04:32:24.927Z,100.00
2023-09-02T04:34:53.507Z,100.00
2023-09-02T04:37:21.979Z,100.00
2023-09-02T04:39:50.587Z,100.00
2023-09-02T04:42:19.105Z,100.00
2023-09-02T04:44:52.053Z,100.00
2023-09-02T04:47:20.540Z,100.00
2023-09-02T04:49:50.033Z,100.00
2023-09-02T04:52:19.754Z,100.00
2023-09-02T04:54:48.213Z,100.00
2023-09-02T04:57:18.761Z,100.00
2023-09-02T04:59:48.912Z,100.00
2023-09-02T05:02:17.385Z,100.00
2023-09-02T05:04:45.889Z,100.00
2023-09-02T05:07:15.150Z,100.00
2023-09-02T05:09:44.355Z,100.00
2023-09-02T05:12:13.368Z,100.00
2023-09-02T05:14:41.922Z,100.00
2023-09-02T05:17:11.705Z,100.00
2023-09-02T05:19:40.214Z,100.00
2023-09-02T05:22:09.596Z,100.00
2023-09-02T05:24:38.080Z,100.00
2023-09-02T05:27:07.583Z,100.00
2023-09-02T05:29:36.070Z,100.00
2023-09-02T05:32:04.787Z,100.00
2023-09-02T05:34:35.363Z,100.00
2023-09-02T05:37:04.851Z,100.00
2023-09-02T05:39:33.427Z,100.00
2023-09-02T05:42:01.965Z,100.00
2023-09-02T05:44:30.500Z,100.00
2023-09-02T05:46:58.881Z,100.00
2023-09-02T05:49:27.310Z,100.00
2023-09-02T05:51:56.046Z,100.00
2023-09-02T05:54:24.611Z,100.00
2023-09-02T05:56:52.932Z,100.00
2023-09-02T05:59:21.303Z,100.00
2023-09-02T06:01:49.742Z,100.00
2023-09-02T06:04:18.176Z,100.00
2023-09-02T06:06:46.518Z,100.00
2023-09-02T06:09:14.958Z,100.00
2023-09-02T06:11:43.340Z,100.00
2023-09-02T06:14:11.728Z,100.00
2023-09-02T06:16:40.198Z,100.00
2023-09-02T06:19:08.627Z,100.00
2023-09-02T06:21:37.034Z,100.00
2023-09-02T06:24:07.186Z,100.00
2023-09-02T06:26:36.345Z,100.00
2023-09-02T06:29:04.779Z,100.00
2023-09-02T06:31:33.174Z,100.00
2023-09-02T06:34:01.606Z,100.00
2023-09-02T06:36:30.021Z,100.00
2023-09-02T06:38:58.406Z,100.00
2023-09-02T06:41:26.741Z,100.00
2023-09-02T06:43:55.170Z,100.00
2023-09-02T06:46:26.810Z,99.53
2023-09-02T06:48:55.245Z,97.17
2023-09-02T07:01:07.476Z,98.66
2023-09-02T07:03:35.906Z,95.84
2023-09-02T07:06:09.929Z,96.96
2023-09-02T07:08:38.368Z,97.02
2023-09-02T07:11:07.156Z,96.11
2023-09-02T07:13:35.496Z,94.73
2023-09-02T07:16:05.329Z,88.87
2023-09-02T07:18:35.218Z,92.01
2023-09-02T07:21:06.647Z,94.82
2023-09-02T07:23:35.213Z,92.69
2023-09-02T07:26:07.332Z,89.90
2023-09-02T07:28:38.171Z,86.18
2023-09-02T07:31:06.907Z,82.15
2023-09-02T07:33:36.478Z,86.44
2023-09-02T07:36:14.210Z,84.52
2023-09-02T07:38:42.780Z,85.67
2023-09-02T07:41:11.457Z,81.64
2023-09-02T07:43:39.878Z,80.83
2023-09-02T07:46:11.971Z,80.76
2023-09-02T07:48:40.400Z,81.43
2023-09-02T07:51:08.853Z,75.79
2023-09-02T07:53:37.256Z,68.66
2023-09-02T07:56:05.638Z,76.53
2023-09-02T07:58:34.019Z,74.70
2023-09-02T08:01:03.774Z,72.49
2023-09-02T08:03:32.379Z,69.31
2023-09-02T08:06:10.009Z,67.74
2023-09-02T08:08:39.652Z,68.94
2023-09-02T08:11:08.472Z,74.29
2023-09-02T08:13:36.850Z,74.79
2023-09-02T08:16:06.665Z,72.53
2023-09-02T08:18:35.661Z,74.67
2023-09-02T08:21:13.254Z,71.27
2023-09-02T08:23:41.622Z,68.65
2023-09-02T08:26:17.232Z,62.80
2023-09-02T08:28:46.214Z,65.39
2023-09-02T08:31:20.933Z,64.13
2023-09-02T08:33:50.141Z,63.12
2023-09-02T08:36:19.014Z,60.38
2023-09-02T08:38:48.181Z,60.09
2023-09-02T08:41:32.317Z,60.31
2023-09-02T08:44:03.364Z,59.16
2023-09-02T08:46:41.501Z,59.21
2023-09-02T08:49:10.391Z,59.00
2023-09-02T08:51:39.973Z,58.42
2023-09-02T08:54:09.956Z,57.58
2023-09-02T08:56:42.770Z,59.85
2023-09-02T08:59:11.591Z,59.14
2023-09-02T09:01:45.409Z,57.40
2023-09-02T09:04:18.903Z,60.59
2023-09-02T09:06:47.444Z,59.97
2023-09-02T09:09:19.223Z,59.41
2023-09-02T09:11:48.412Z,58.99
2023-09-02T09:14:26.040Z,58.41
2023-09-02T09:16:57.178Z,56.43
2023-09-02T09:19:27.699Z,53.60
2023-09-02T09:21:56.470Z,52.47
2023-09-02T09:24:24.922Z,52.65
2023-09-02T09:26:53.383Z,53.98
2023-09-02T09:29:24.546Z,54.17
2023-09-02T09:32:10.801Z,53.47
2023-09-02T09:34:42.378Z,52.47
2023-09-02T09:37:11.649Z,53.06
2023-09-02T09:39:43.014Z,53.41
2023-09-02T09:42:16.892Z,54.80
2023-09-02T09:44:57.385Z,53.31
2023-09-02T09:47:27.661Z,52.89
2023-09-02T09:50:15.686Z,55.21
2023-09-02T09:53:06.856Z,53.04
2023-09-02T09:55:36.082Z,53.68
2023-09-02T09:58:06.433Z,54.12
2023-09-02T10:00:34.952Z,54.49
2023-09-02T10:03:04.377Z,52.78
2023-09-02T10:05:35.251Z,52.22
2023-09-02T10:08:07.314Z,51.09
2023-09-02T10:10:39.056Z,51.56
2023-09-02T10:13:07.670Z,51.12
2023-09-02T10:15:36.315Z,52.04
2023-09-02T10:18:05.751Z,52.90
2023-09-02T10:20:36.796Z,51.43
2023-09-02T10:23:10.860Z,49.95
2023-09-02T10:26:09.645Z,49.72
2023-09-02T10:28:40.214Z,51.52
2023-09-02T10:31:20.284Z,51.27
2023-09-02T10:34:20.025Z,50.35
2023-09-02T10:36:59.120Z,50.50
2023-09-02T10:39:39.700Z,49.06
2023-09-02T10:42:09.628Z,46.38
2023-09-02T10:44:38.821Z,46.64
2023-09-02T10:47:07.583Z,45.25
2023-09-02T10:49:37.202Z,45.29
2023-09-02T10:52:06.545Z,44.78
2023-09-02T10:55:06.779Z,45.07
2023-09-02T10:57:54.258Z,45.54
2023-09-02T11:00:26.861Z,46.63
2023-09-02T11:03:00.674Z,44.40
2023-09-02T11:05:29.999Z,44.69
2023-09-02T11:07:58.487Z,45.47
2023-09-02T11:10:57.137Z,44.95
2023-09-02T11:13:25.585Z,44.37
2023-09-02T11:16:16.862Z,42.18
2023-09-02T11:18:45.467Z,41.57
2023-09-02T11:21:45.161Z,41.46
2023-09-02T11:24:19.452Z,39.19
2023-09-02T11:26:59.955Z,39.63
2023-09-02T11:29:31.173Z,41.08
2023-09-02T11:32:05.542Z,40.18
2023-09-02T11:34:34.886Z,39.67
2023-09-02T11:37:04.926Z,39.80
2023-09-02T11:39:33.559Z,37.43
2023-09-02T11:42:09.978Z,36.19
2023-09-02T11:44:39.594Z,34.82
2023-09-02T11:47:09.105Z,35.71
2023-09-02T11:49:37.857Z,36.03
2023-09-02T11:52:06.672Z,35.63
2023-09-02T11:54:38.510Z,34.59
2023-09-02T11:57:06.950Z,34.61
2023-09-02T11:59:35.382Z,34.20
2023-09-02T12:02:16.849Z,33.13
2023-09-02T12:04:49.504Z,33.45
2023-09-02T12:07:19.191Z,35.14
2023-09-02T12:09:47.878Z,33.92
2023-09-02T12:12:16.775Z,32.91
2023-09-02T12:14:46.184Z,31.46
2023-09-02T12:17:15.315Z,31.69
2023-09-02T12:19:43.760Z,32.09
2023-09-02T12:22:12.298Z,33.26
2023-09-02T12:24:40.717Z,34.31
2023-09-02T12:27:10.755Z,35.13
2023-09-02T12:29:39.386Z,35.04
2023-09-02T12:32:07.783Z,35.35
2023-09-02T12:34:40.282Z,36.79
2023-09-02T12:37:15.457Z,38.60
2023-09-02T12:39:44.013Z,37.47
2023-09-02T12:42:20.476Z,36.24
2023-09-02T12:45:03.152Z,35.51
2023-09-02T12:47:32.274Z,35.76
2023-09-02T12:50:05.968Z,36.96
2023-09-02T12:52:35.860Z,35.06
2023-09-02T12:55:07.000Z,34.59
2023-09-02T12:57:36.921Z,34.00
2023-09-02T13:00:07.056Z,31.90
2023-09-02T13:02:36.083Z,32.13
2023-09-02T13:05:05.706Z,31.61
2023-09-02T13:07:34.720Z,30.72
2023-09-02T13:10:03.922Z,30.83
2023-09-02T13:12:33.669Z,29.76
2023-09-02T13:15:02.116Z,29.12
2023-09-02T13:17:30.616Z,29.99
2023-09-02T13:19:59.180Z,29.87
2023-09-02T13:22:27.586Z,28.83
2023-09-02T13:24:56.036Z,29.08
2023-09-02T13:27:27.615Z,29.54
2023-09-02T13:29:56.278Z,28.56
2023-09-02T13:32:27.432Z,29.30
2023-09-02T13:35:09.655Z,29.06
2023-09-02T13:37:38.099Z,26.80
2023-09-02T13:40:17.452Z,27.14
2023-09-02T13:42:48.516Z,26.89
2023-09-02T13:45:30.199Z,26.48
2023-09-02T13:48:00.869Z,26.48
2023-09-02T13:50:29.484Z,26.60
2023-09-02T13:52:59.602Z,25.87
2023-09-02T13:55:43.667Z,25.24
2023-09-02T13:58:18.452Z,25.72
2023-09-02T14:00:47.960Z,24.83
2023-09-02T14:03:28.420Z,24.70
2023-09-02T14:05:59.623Z,25.47
2023-09-02T14:08:45.746Z,25.25
2023-09-02T14:11:15.084Z,25.17
2023-09-02T14:13:43.528Z,25.93
2023-09-02T14:16:12.016Z,25.63
2023-09-02T14:18:40.452Z,25.66
2023-09-02T14:21:09.568Z,25.30
2023-09-02T14:23:37.970Z,24.70
2023-09-02T14:26:06.414Z,25.22
2023-09-02T14:28:36.678Z,25.00
2023-09-02T14:31:05.434Z,24.48
2023-09-02T14:33:33.966Z,25.42
2023-09-02T14:36:03.860Z,25.19
2023-09-02T14:38:32.316Z,25.43
2023-09-02T14:41:00.731Z,24.68
2023-09-02T14:43:29.709Z,24.80
2023-09-02T14:45:58.254Z,24.49
2023-09-02T14:48:26.869Z,23.94
2023-09-02T14:50:57.006Z,24.29
2023-09-02T14:53:25.445Z,24.66
2023-09-02T14:55:53.987Z,24.86
2023-09-02T14:58:22.441Z,24.78
2023-09-02T15:00:55.631Z,24.97
2023-09-02T15:03:33.959Z,24.39
2023-09-02T15:06:02.598Z,24.29
2023-09-02T15:08:34.244Z,24.27
2023-09-02T15:11:03.145Z,24.26
2023-09-02T15:13:32.440Z,24.37
2023-09-02T15:16:01.538Z,24.86
2023-09-02T15:18:32.324Z,25.13
2023-09-02T15:21:03.499Z,24.73
2023-09-02T15:23:33.593Z,25.44
2023-09-02T15:26:02.658Z,24.90
2023-09-02T15:28:31.226Z,25.64
2023-09-02T15:31:04.693Z,25.20
2023-09-02T15:33:33.150Z,25.69
2023-09-02T15:36:03.980Z,26.34
2023-09-02T15:38:32.385Z,26.01
2023-09-02T15:41:05.002Z,26.21
2023-09-02T15:43:39.617Z,26.66
2023-09-02T15:46:08.820Z,26.37
2023-09-02T15:48:37.306Z,27.03
2023-09-02T15:51:08.008Z,27.50
2023-09-02T15:53:36.401Z,27.96
2023-09-02T15:56:04.961Z,28.99
2023-09-02T15:58:33.602Z,30.56
2023-09-02T16:01:02.073Z,31.81
2023-09-02T16:03:30.597Z,33.01
2023-09-02T16:06:00.374Z,34.13
2023-09-02T16:08:28.784Z,35.33
2023-09-02T16:10:57.511Z,36.73
2023-09-02T16:13:25.936Z,38.24
2023-09-02T16:15:54.405Z,39.32
2023-09-02T16:18:22.853Z,39.28
2023-09-02T16:20:53.958Z,38.38
2023-09-02T16:23:22.777Z,38.91
2023-09-02T16:25:51.346Z,39.79
2023-09-02T16:28:19.742Z,42.94
2023-09-02T16:30:48.229Z,44.09
2023-09-02T16:33:17.068Z,47.86
2023-09-02T16:35:45.671Z,54.08
2023-09-02T16:38:14.762Z,57.73
2023-09-02T16:40:43.243Z,61.57
2023-09-02T16:43:16.547Z,66.80
2023-09-02T16:45:49.087Z,66.51
2023-09-02T16:48:21.962Z,69.66
2023-09-02T16:50:51.078Z,72.27
2023-09-02T16:53:20.069Z,74.54
2023-09-02T16:56:04.083Z,74.67
2023-09-02T16:58:36.946Z,76.13
2023-09-02T17:01:08.908Z,79.59
2023-09-02T17:03:37.723Z,78.16
2023-09-02T17:06:08.548Z,79.33
2023-09-02T17:08:38.046Z,82.60
2023-09-02T17:11:06.438Z,83.03
2023-09-02T17:13:36.170Z,81.24
2023-09-02T17:16:10.466Z,81.34
2023-09-02T17:18:39.427Z,84.20
2023-09-02T17:21:13.450Z,89.28
2023-09-02T17:23:41.794Z,89.67
